createdAt,value
2018-08-23T00:00:36.030Z,4.60
2018-08-23T00:03:07.909Z,3.70
2018-08-23T00:05:37.017Z,3.77
2018-08-23T00:08:09.609Z,4.07
2018-08-23T00:10:38.214Z,4.53
2018-08-23T00:13:07.260Z,3.90
2018-08-23T00:15:35.491Z,4.03
2018-08-23T00:18:03.908Z,3.80
2018-08-23T00:20:32.253Z,4.03
2018-08-23T00:23:00.929Z,3.80
2018-08-23T00:25:29.434Z,4.10
2018-08-23T00:27:57.646Z,4.10
2018-08-23T00:30:30.844Z,4.10
2018-08-23T00:33:00.619Z,3.77
2018-08-23T00:35:29.111Z,4.07
2018-08-23T00:37:57.695Z,3.83
2018-08-23T00:40:26.175Z,3.70
2018-08-23T00:43:00.096Z,3.87
2018-08-23T00:45:28.564Z,4.10
2018-08-23T00:47:56.966Z,4.00
2018-08-23T00:51:02.231Z,4.07
2018-08-23T00:53:31.934Z,4.07
2018-08-23T00:56:08.188Z,3.87
2018-08-23T00:58:36.763Z,3.67
2018-08-23T01:01:05.020Z,4.43
2018-08-23T01:03:35.791Z,3.83
2018-08-23T01:06:04.256Z,3.83
2018-08-23T01:08:34.270Z,3.83
2018-08-23T01:11:03.315Z,3.97
2018-08-23T01:13:31.925Z,3.57
2018-08-23T01:16:00.555Z,3.67
2018-08-23T01:18:29.001Z,3.90
2018-08-23T01:20:57.811Z,3.27
2018-08-23T01:23:26.277Z,3.53
2018-08-23T01:25:54.928Z,3.30
2018-08-23T01:28:23.579Z,3.77
2018-08-23T01:30:52.196Z,3.17
2018-08-23T01:33:22.122Z,3.73
2018-08-23T01:35:51.789Z,3.57
2018-08-23T01:38:20.272Z,4.27
2018-08-23T01:40:48.807Z,3.70
2018-08-23T01:43:17.154Z,4.00
2018-08-23T01:45:45.769Z,3.93
2018-08-23T01:48:14.418Z,3.60
2018-08-23T01:50:42.823Z,4.07
2018-08-23T01:53:11.292Z,3.90
2018-08-23T01:55:39.688Z,4.63
2018-08-23T01:58:08.163Z,4.00
2018-08-23T02:00:37.085Z,4.10
2018-08-23T02:03:05.807Z,3.80
2018-08-23T02:05:34.201Z,4.20
2018-08-23T02:08:02.760Z,3.67
2018-08-23T02:10:31.308Z,3.50
2018-08-23T02:12:59.794Z,3.77
2018-08-23T02:15:35.869Z,3.60
2018-08-23T02:18:04.770Z,4.23
2018-08-23T02:20:33.383Z,3.40
2018-08-23T02:23:02.689Z,3.40
2018-08-23T02:25:31.249Z,3.37
2018-08-23T02:28:01.173Z,3.77
2018-08-23T02:30:38.668Z,4.00
2018-08-23T02:33:07.204Z,3.67
2018-08-23T02:35:35.599Z,4.10
2018-08-23T02:38:04.371Z,3.57
2018-08-23T02:40:34.832Z,5.17
2018-08-23T02:43:03.548Z,3.67
2018-08-23T02:45:36.806Z,4.10
2018-08-23T02:48:05.579Z,3.70
2018-08-23T02:50:34.091Z,3.97
2018-08-23T02:53:09.548Z,3.27
2018-08-23T02:55:42.017Z,3.43
2018-08-23T02:58:10.643Z,3.83
2018-08-23T03:00:44.154Z,3.53
2018-08-23T03:04:19.442Z,4.20
2018-08-23T03:06:52.038Z,3.70
2018-08-23T03:09:24.785Z,3.80
2018-08-23T03:11:55.232Z,4.30
2018-08-23T03:14:24.758Z,4.17
2018-08-23T03:16:53.860Z,4.10
2018-08-23T03:19:22.264Z,4.10
2018-08-23T03:21:55.765Z,3.53
2018-08-23T03:24:24.064Z,4.40
2018-08-23T03:26:52.527Z,4.40
2018-08-23T03:29:21.100Z,4.37
2018-08-23T03:31:49.756Z,4.17
2018-08-23T03:34:17.578Z,4.00
2018-08-23T03:36:46.109Z,4.07
2018-08-23T03:39:14.735Z,4.00
2018-08-23T03:41:43.412Z,4.63
2018-08-23T03:44:17.380Z,4.40
2018-08-23T03:46:51.419Z,3.90
2018-08-23T03:49:20.467Z,4.43
2018-08-23T03:51:49.091Z,4.90
2018-08-23T03:54:17.553Z,4.50
2018-08-23T03:56:50.263Z,4.67
2018-08-23T03:59:18.526Z,5.00
2018-08-23T04:01:46.771Z,4.10
2018-08-23T04:04:15.257Z,4.83
2018-08-23T04:06:43.681Z,4.40
2018-08-23T04:09:12.123Z,4.50
2018-08-23T04:11:40.758Z,4.83
2018-08-23T04:14:09.691Z,4.77
2018-08-23T04:16:38.004Z,4.43
2018-08-23T04:19:06.237Z,4.30
2018-08-23T04:21:34.540Z,5.10
2018-08-23T04:24:03.182Z,4.53
2018-08-23T04:26:31.787Z,4.03
2018-08-23T04:29:00.372Z,4.10
2018-08-23T04:31:28.877Z,4.63
2018-08-23T04:33:57.503Z,4.67
2018-08-23T04:36:29.564Z,4.23
2018-08-23T04:39:03.335Z,4.47
2018-08-23T04:41:32.875Z,4.67
2018-08-23T04:44:10.528Z,4.40
2018-08-23T04:46:38.959Z,5.50
2018-08-23T04:49:07.867Z,4.67
2018-08-23T04:51:37.637Z,4.43
2018-08-23T04:54:06.339Z,3.93
2018-08-23T04:56:34.888Z,4.17
2018-08-23T04:59:03.341Z,4.80
2018-08-23T05:01:31.776Z,3.87
2018-08-23T05:04:00.436Z,4.97
2018-08-23T05:06:29.051Z,5.23
2018-08-23T05:08:57.681Z,4.07
2018-08-23T05:11:26.314Z,4.43
2018-08-23T05:13:54.742Z,5.00
2018-08-23T05:16:23.440Z,4.60
2018-08-23T05:18:52.033Z,4.93
2018-08-23T05:21:19.855Z,5.07
2018-08-23T05:23:47.691Z,6.33
2018-08-23T05:26:17.059Z,5.50
2018-08-23T05:28:50.368Z,6.87
2018-08-23T05:31:18.216Z,7.50
2018-08-23T05:33:46.083Z,6.20
2018-08-23T05:36:17.076Z,6.13
2018-08-23T05:38:44.924Z,6.70
2018-08-23T05:41:13.298Z,6.73
2018-08-23T05:43:41.136Z,6.03
2018-08-23T05:46:08.985Z,6.70
2018-08-23T05:48:36.871Z,5.77
2018-08-23T05:51:09.403Z,5.93
2018-08-23T05:53:40.890Z,6.00
2018-08-23T05:56:08.862Z,5.47
2018-08-23T05:58:36.756Z,5.20
2018-08-23T06:01:04.655Z,5.80
2018-08-23T06:03:32.500Z,5.60
2018-08-23T06:06:00.360Z,5.97
2018-08-23T06:08:28.241Z,5.70
2018-08-23T06:11:00.692Z,5.37
2018-08-23T06:13:28.561Z,5.60
2018-08-23T06:15:58.052Z,5.23
2018-08-23T06:18:27.101Z,5.07
2018-08-23T06:20:55.547Z,4.73
2018-08-23T06:23:54.914Z,5.03
2018-08-23T06:26:43.063Z,4.47
2018-08-23T06:29:13.822Z,4.70
2018-08-23T06:31:52.887Z,4.70
2018-08-23T06:34:20.864Z,4.77
2018-08-23T06:36:48.885Z,4.70
2018-08-23T06:39:16.749Z,4.30
2018-08-23T06:41:45.268Z,4.80
2018-08-23T06:44:13.884Z,4.37
2018-08-23T06:46:41.740Z,4.60
2018-08-23T06:49:09.719Z,4.27
2018-08-23T06:51:38.259Z,4.67
2018-08-23T06:54:06.863Z,4.80
2018-08-23T06:56:38.163Z,5.00
2018-08-23T06:59:07.124Z,4.83
2018-08-23T07:01:40.372Z,4.27
2018-08-23T07:04:10.972Z,4.27
2018-08-23T07:06:39.540Z,4.27
2018-08-23T07:09:08.539Z,4.23
2018-08-23T07:11:37.182Z,4.50
2018-08-23T07:14:12.605Z,4.50
2018-08-23T07:16:41.662Z,4.00
2018-08-23T07:19:15.264Z,4.40
2018-08-23T07:21:44.174Z,4.17
2018-08-23T07:24:16.538Z,7.23
2018-08-23T07:26:45.097Z,4.90
2018-08-23T07:29:13.729Z,5.00
2018-08-23T07:31:46.280Z,4.90
2018-08-23T07:34:14.912Z,4.67
2018-08-23T07:36:43.584Z,5.60
2018-08-23T07:39:12.807Z,5.03
2018-08-23T07:41:41.421Z,4.70
2018-08-23T07:44:09.881Z,4.83
2018-08-23T07:46:38.524Z,5.60
2018-08-23T07:49:07.141Z,4.53
2018-08-23T07:51:35.775Z,4.60
2018-08-23T07:54:08.390Z,4.50
2018-08-23T07:56:37.023Z,4.73
2018-08-23T07:59:05.620Z,5.10
2018-08-23T08:01:34.122Z,5.00
2018-08-23T08:04:02.563Z,4.30
2018-08-23T08:06:31.128Z,4.53
2018-08-23T08:09:00.963Z,4.77
2018-08-23T08:11:33.330Z,4.80
2018-08-23T08:14:10.768Z,4.63
2018-08-23T08:16:39.227Z,4.67
2018-08-23T08:19:07.674Z,4.90
2018-08-23T08:21:36.128Z,4.80
2018-08-23T08:24:04.567Z,4.83
2018-08-23T08:26:33.658Z,5.17
2018-08-23T08:29:02.225Z,5.10
2018-08-23T08:31:30.848Z,5.20
2018-08-23T08:34:00.143Z,4.93
2018-08-23T08:36:32.799Z,5.47
2018-08-23T08:39:02.243Z,4.83
2018-08-23T08:41:34.413Z,5.23
2018-08-23T08:44:02.941Z,6.10
2018-08-23T08:46:31.545Z,5.00
2018-08-23T08:49:00.176Z,5.40
2018-08-23T08:51:30.516Z,4.97
2018-08-23T08:54:00.207Z,5.47
2018-08-23T08:56:33.903Z,5.40
2018-08-23T08:59:02.410Z,5.87
2018-08-23T09:01:31.177Z,5.37
2018-08-23T09:03:59.857Z,6.20
2018-08-23T09:06:46.452Z,5.07
2018-08-23T09:09:19.122Z,5.20
2018-08-23T09:11:47.339Z,5.67
2018-08-23T09:14:16.097Z,5.47
2018-08-23T09:16:44.455Z,5.33
2018-08-23T09:19:12.937Z,5.80
2018-08-23T09:21:41.521Z,5.03
2018-08-23T09:24:21.204Z,5.53
2018-08-23T09:26:49.590Z,5.60
2018-08-23T09:29:23.976Z,5.27
2018-08-23T09:31:53.130Z,5.80
2018-08-23T09:34:21.701Z,4.97
2018-08-23T09:36:50.226Z,5.10
2018-08-23T09:39:18.695Z,5.17
2018-08-23T09:41:47.355Z,5.10
2018-08-23T09:44:16.576Z,5.80
2018-08-23T09:46:49.517Z,4.93
2018-08-23T09:49:17.943Z,5.43
2018-08-23T09:51:46.392Z,5.83
2018-08-23T09:54:19.135Z,5.57
2018-08-23T09:56:47.602Z,5.67
2018-08-23T09:59:16.011Z,5.40
2018-08-23T10:01:49.834Z,6.03
2018-08-23T10:04:23.513Z,5.67
2018-08-23T10:07:01.227Z,5.63
2018-08-23T10:09:30.283Z,5.70
2018-08-23T10:12:03.867Z,5.97
2018-08-23T10:14:37.265Z,6.47
2018-08-23T10:17:10.659Z,6.10
2018-08-23T10:19:44.080Z,5.70
2018-08-23T10:22:22.694Z,6.07
2018-08-23T10:24:50.936Z,5.17
2018-08-23T10:27:19.401Z,5.33
2018-08-23T10:29:47.811Z,6.60
2018-08-23T10:32:16.658Z,5.80
2018-08-23T10:34:45.120Z,5.60
2018-08-23T10:37:13.724Z,5.60
2018-08-23T10:39:42.201Z,6.03
2018-08-23T10:42:15.899Z,5.57
2018-08-23T10:44:44.807Z,5.67
2018-08-23T10:47:17.571Z,5.87
2018-08-23T10:49:46.559Z,5.93
2018-08-23T10:52:14.999Z,5.57
2018-08-23T10:54:43.704Z,5.57
2018-08-23T10:57:16.020Z,5.30
2018-08-23T10:59:44.663Z,5.47
2018-08-23T11:02:14.151Z,5.33
2018-08-23T11:04:43.111Z,5.47
2018-08-23T11:07:11.594Z,5.00
2018-08-23T11:09:45.256Z,5.80
2018-08-23T11:12:18.676Z,5.23
2018-08-23T11:14:47.272Z,5.43
2018-08-23T11:17:21.220Z,5.37
2018-08-23T11:19:54.765Z,5.20
2018-08-23T11:22:27.517Z,5.33
2018-08-23T11:24:55.789Z,5.20
2018-08-23T11:27:23.706Z,5.77
2018-08-23T11:29:52.048Z,6.00
2018-08-23T11:32:19.928Z,4.87
2018-08-23T11:34:48.628Z,5.10
2018-08-23T11:37:17.173Z,5.27
2018-08-23T11:39:45.650Z,5.60
2018-08-23T11:42:14.267Z,4.97
2018-08-23T11:44:42.686Z,5.73
2018-08-23T11:47:11.139Z,5.20
2018-08-23T11:49:39.602Z,5.57
2018-08-23T11:52:08.399Z,5.53
2018-08-23T11:54:36.909Z,4.90
2018-08-23T11:57:05.497Z,6.90
2018-08-23T11:59:33.900Z,5.23
2018-08-23T12:02:01.735Z,4.67
2018-08-23T12:04:30.224Z,4.80
2018-08-23T12:06:58.837Z,4.90
2018-08-23T12:09:32.783Z,5.40
2018-08-23T12:12:02.483Z,5.33
2018-08-23T12:14:30.544Z,4.83
2018-08-23T12:16:59.285Z,5.30
2018-08-23T12:19:27.768Z,5.17
2018-08-23T12:21:56.386Z,5.17
2018-08-23T12:24:25.147Z,5.60
2018-08-23T12:26:55.337Z,5.33
2018-08-23T12:29:23.182Z,5.47
2018-08-23T12:31:54.096Z,5.13
2018-08-23T12:34:27.442Z,5.23
2018-08-23T12:37:01.096Z,5.30
2018-08-23T12:39:34.503Z,5.70
2018-08-23T12:42:07.665Z,5.00
2018-08-23T12:44:37.042Z,5.50
2018-08-23T12:47:05.564Z,4.90
2018-08-23T12:49:34.030Z,5.20
2018-08-23T12:52:02.660Z,5.60
2018-08-23T12:54:31.967Z,4.87
2018-08-23T12:57:00.552Z,4.50
2018-08-23T12:59:28.986Z,5.30
2018-08-23T13:01:57.679Z,5.40
2018-08-23T13:04:26.329Z,5.10
2018-08-23T13:06:54.885Z,4.23
2018-08-23T13:09:23.383Z,4.53
2018-08-23T13:11:51.696Z,4.40
2018-08-23T13:14:19.967Z,5.03
2018-08-23T13:16:48.687Z,5.03
2018-08-23T13:19:17.606Z,5.80
2018-08-23T13:21:50.247Z,5.97
2018-08-23T13:24:18.632Z,5.57
2018-08-23T13:26:47.097Z,4.90
2018-08-23T13:29:15.716Z,4.40
2018-08-23T13:31:44.168Z,5.30
2018-08-23T13:34:12.955Z,5.47
2018-08-23T13:36:41.485Z,5.10
2018-08-23T13:39:11.663Z,5.13
2018-08-23T13:41:40.315Z,4.80
2018-08-23T13:44:08.687Z,4.83
2018-08-23T13:46:37.123Z,4.90
2018-08-23T13:49:05.578Z,5.37
2018-08-23T13:51:34.025Z,5.30
2018-08-23T13:54:02.522Z,5.50
2018-08-23T13:56:31.104Z,4.77
2018-08-23T13:58:59.757Z,4.53
2018-08-23T14:01:29.491Z,4.93
2018-08-23T14:03:58.462Z,5.50
2018-08-23T14:06:27.021Z,4.57
2018-08-23T14:08:55.655Z,5.40
2018-08-23T14:11:24.064Z,4.80
2018-08-23T14:13:52.582Z,4.80
2018-08-23T14:16:21.149Z,5.70
2018-08-23T14:18:49.612Z,5.10
2018-08-23T14:21:18.063Z,4.73
2018-08-23T14:23:46.683Z,5.10
2018-08-23T14:26:15.128Z,5.73
2018-08-23T14:28:43.571Z,4.73
2018-08-23T14:31:12.215Z,4.23
2018-08-23T14:33:40.839Z,4.40
2018-08-23T14:36:09.476Z,4.60
2018-08-23T14:38:37.914Z,4.47
2018-08-23T14:41:06.356Z,4.50
2018-08-23T14:43:34.775Z,4.03
2018-08-23T14:46:07.901Z,4.60
2018-08-23T14:48:36.533Z,4.37
2018-08-23T14:51:05.020Z,4.27
2018-08-23T14:53:33.499Z,4.40
2018-08-23T14:56:06.875Z,4.40
2018-08-23T14:58:35.461Z,4.67
2018-08-23T15:01:03.972Z,4.60
2018-08-23T15:03:32.336Z,4.77
2018-08-23T15:06:00.970Z,4.53
2018-08-23T15:08:29.380Z,4.23
2018-08-23T15:10:57.898Z,4.43
2018-08-23T15:13:26.509Z,4.40
2018-08-23T15:15:55.183Z,5.37
2018-08-23T15:18:24.056Z,4.30
2018-08-23T15:20:52.649Z,5.07
2018-08-23T15:23:21.272Z,4.57
2018-08-23T15:25:49.874Z,4.87
2018-08-23T15:28:18.118Z,4.93
2018-08-23T15:30:46.783Z,4.57
2018-08-23T15:33:15.176Z,5.13
2018-08-23T15:35:43.646Z,5.83
2018-08-23T15:38:13.059Z,5.00
2018-08-23T15:40:41.703Z,5.07
2018-08-23T15:43:10.320Z,4.97
2018-08-23T15:45:38.948Z,5.30
2018-08-23T15:48:07.481Z,4.80
2018-08-23T15:50:36.059Z,4.47
2018-08-23T15:53:04.691Z,5.30
2018-08-23T15:55:34.179Z,4.40
2018-08-23T15:58:02.534Z,3.93
2018-08-23T16:00:40.042Z,4.80
2018-08-23T16:03:08.787Z,4.50
2018-08-23T16:05:37.758Z,4.40
2018-08-23T16:08:06.753Z,4.00
2018-08-23T16:10:35.107Z,3.73
2018-08-23T16:13:03.596Z,4.20
2018-08-23T16:15:32.504Z,4.70
2018-08-23T16:18:05.836Z,4.10
2018-08-23T16:20:39.240Z,4.43
2018-08-23T16:23:07.568Z,4.20
2018-08-23T16:25:42.081Z,4.00
2018-08-23T16:28:10.315Z,4.13
2018-08-23T16:30:40.777Z,4.50
2018-08-23T16:33:09.570Z,4.33
2018-08-23T16:35:38.020Z,4.03
2018-08-23T16:38:06.454Z,4.20
2018-08-23T16:40:35.096Z,4.13
2018-08-23T16:43:04.438Z,4.03
2018-08-23T16:45:32.732Z,4.80
2018-08-23T16:48:04.761Z,3.97
2018-08-23T16:50:32.641Z,4.50
2018-08-23T16:53:01.430Z,4.27
2018-08-23T16:55:30.072Z,4.30
2018-08-23T16:57:58.720Z,4.73
2018-08-23T17:00:27.159Z,4.50
2018-08-23T17:02:55.775Z,4.70
2018-08-23T17:05:24.418Z,4.40
2018-08-23T17:07:52.812Z,4.37
2018-08-23T17:10:21.075Z,4.60
2018-08-23T17:12:49.541Z,5.30
2018-08-23T17:15:18.182Z,5.30
2018-08-23T17:17:51.713Z,5.70
2018-08-23T17:20:20.164Z,5.07
2018-08-23T17:22:48.611Z,4.50
2018-08-23T17:25:17.296Z,4.80
2018-08-23T17:27:45.870Z,4.77
2018-08-23T17:30:14.348Z,4.67
2018-08-23T17:32:43.125Z,4.67
2018-08-23T17:35:11.600Z,4.97
2018-08-23T17:37:40.040Z,4.83
2018-08-23T17:40:08.496Z,5.10
2018-08-23T17:42:43.418Z,4.90
2018-08-23T17:45:12.831Z,4.80
2018-08-23T17:47:41.457Z,5.43
2018-08-23T17:50:10.115Z,4.67
2018-08-23T17:52:38.715Z,5.00
2018-08-23T17:55:06.551Z,5.10
2018-08-23T17:57:34.864Z,4.60
2018-08-23T18:00:03.495Z,5.13
2018-08-23T18:02:31.344Z,4.77
2018-08-23T18:04:59.941Z,5.23
2018-08-23T18:07:28.626Z,5.03
2018-08-23T18:09:56.999Z,4.57
2018-08-23T18:12:25.235Z,4.60
2018-08-23T18:14:53.545Z,4.93
2018-08-23T18:17:21.408Z,4.73
2018-08-23T18:19:49.241Z,5.20
2018-08-23T18:22:17.139Z,4.90
2018-08-23T18:24:44.986Z,5.27
2018-08-23T18:27:12.880Z,4.90
2018-08-23T18:29:41.141Z,5.50
2018-08-23T18:32:08.982Z,5.27
2018-08-23T18:34:36.848Z,5.83
2018-08-23T18:37:04.721Z,5.17
2018-08-23T18:39:32.959Z,4.67
2018-08-23T18:42:00.845Z,4.80
2018-08-23T18:44:28.712Z,5.40
2018-08-23T18:46:56.564Z,5.37
2018-08-23T18:49:24.402Z,5.70
2018-08-23T18:51:52.247Z,5.50
2018-08-23T18:54:20.108Z,5.80
2018-08-23T18:56:47.984Z,5.30
2018-08-23T18:59:15.827Z,6.73
2018-08-23T19:01:44.162Z,6.27
2018-08-23T19:04:12.012Z,5.13
2018-08-23T19:06:39.886Z,5.43
2018-08-23T19:09:11.395Z,5.37
2018-08-23T19:11:39.262Z,5.87
2018-08-23T19:14:07.199Z,5.57
2018-08-23T19:16:40.239Z,5.40
2018-08-23T19:19:08.089Z,5.40
2018-08-23T19:21:36.426Z,5.20
2018-08-23T19:24:04.907Z,5.70
2018-08-23T19:26:33.308Z,5.40
2018-08-23T19:29:01.570Z,5.53
2018-08-23T19:31:29.904Z,5.03
2018-08-23T19:33:58.555Z,5.53
2018-08-23T19:36:27.103Z,5.27
2018-08-23T19:38:55.906Z,6.13
2018-08-23T19:41:24.579Z,5.30
2018-08-23T19:43:52.437Z,4.87
2018-08-23T19:46:25.472Z,4.93
2018-08-23T19:48:58.613Z,5.40
2018-08-23T19:51:26.516Z,5.27
2018-08-23T19:53:54.349Z,5.60
2018-08-23T19:56:22.254Z,5.40
2018-08-23T19:58:50.091Z,5.27
2018-08-23T20:01:17.920Z,5.30
2018-08-23T20:03:45.759Z,5.53
2018-08-23T20:06:13.639Z,5.50
2018-08-23T20:08:41.588Z,4.90
2018-08-23T20:11:09.407Z,4.70
2018-08-23T20:13:37.541Z,4.93
2018-08-23T20:16:05.532Z,4.50
2018-08-23T20:18:33.395Z,4.97
2018-08-23T20:21:01.247Z,4.87
2018-08-23T20:23:29.096Z,4.53
2018-08-23T20:25:57.005Z,5.57
2018-08-23T20:28:24.851Z,4.50
2018-08-23T20:30:52.687Z,5.50
2018-08-23T20:33:20.520Z,5.13
2018-08-23T20:35:48.390Z,5.03
2018-08-23T20:38:16.723Z,5.57
2018-08-23T20:40:44.597Z,4.73
2018-08-23T20:43:12.530Z,5.37
2018-08-23T20:45:40.408Z,4.70
2018-08-23T20:48:08.507Z,5.10
2018-08-23T20:50:36.435Z,4.60
2018-08-23T20:53:04.300Z,4.80
2018-08-23T20:55:32.182Z,4.57
2018-08-23T20:58:00.062Z,4.63
2018-08-23T21:00:27.884Z,5.10
2018-08-23T21:02:55.728Z,5.30
2018-08-23T21:05:23.588Z,4.63
2018-08-23T21:07:51.445Z,5.20
2018-08-23T21:10:19.403Z,5.07
2018-08-23T21:12:47.244Z,4.90
2018-08-23T21:15:15.617Z,4.87
2018-08-23T21:17:44.244Z,5.00
2018-08-23T21:20:12.090Z,5.00
2018-08-23T21:22:39.947Z,5.23
2018-08-23T21:25:07.828Z,5.03
2018-08-23T21:27:35.703Z,5.07
2018-08-23T21:30:04.307Z,4.73
2018-08-23T21:32:32.739Z,5.10
2018-08-23T21:35:01.383Z,4.93
2018-08-23T21:37:29.818Z,5.20
2018-08-23T21:39:57.724Z,4.60
2018-08-23T21:42:26.020Z,5.87
2018-08-23T21:44:54.624Z,4.70
2018-08-23T21:47:23.261Z,5.27
2018-08-23T21:49:52.451Z,4.63
2018-08-23T21:52:20.874Z,5.30
2018-08-23T21:54:49.526Z,5.10
2018-08-23T21:57:18.231Z,5.00
2018-08-23T21:59:46.840Z,4.57
2018-08-23T22:02:18.939Z,4.50
2018-08-23T22:04:53.253Z,5.30
2018-08-23T22:07:21.976Z,4.50
2018-08-23T22:09:52.356Z,5.77
2018-08-23T22:12:23.144Z,5.03
2018-08-23T22:14:52.968Z,4.90
2018-08-23T22:17:22.113Z,5.03
2018-08-23T22:19:51.139Z,4.80
2018-08-23T22:22:19.504Z,4.90
2018-08-23T22:24:48.124Z,5.03
2018-08-23T22:27:16.569Z,5.67
2018-08-23T22:29:45.168Z,5.00
2018-08-23T22:32:14.213Z,5.03
2018-08-23T22:34:42.681Z,4.50
2018-08-23T22:37:11.242Z,5.40
2018-08-23T22:39:39.698Z,4.63
2018-08-23T22:42:07.802Z,4.83
2018-08-23T22:44:35.644Z,4.63
2018-08-23T22:47:04.214Z,4.87
2018-08-23T22:49:32.083Z,5.00
2018-08-23T22:51:59.910Z,4.67
2018-08-23T22:54:28.562Z,4.63
2018-08-23T22:56:57.217Z,4.77
2018-08-23T22:59:25.824Z,4.27
2018-08-23T23:01:54.468Z,4.70
2018-08-23T23:04:26.699Z,4.60
2018-08-23T23:06:54.613Z,4.77
2018-08-23T23:09:22.473Z,4.53
2018-08-23T23:11:50.967Z,4.33
2018-08-23T23:14:19.435Z,4.70
2018-08-23T23:16:48.160Z,4.87
2018-08-23T23:19:16.927Z,4.50
2018-08-23T23:21:45.513Z,4.80
2018-08-23T23:24:18.979Z,4.33
2018-08-23T23:26:46.846Z,4.60
2018-08-23T23:29:14.707Z,4.07
2018-08-23T23:31:42.552Z,3.90
2018-08-23T23:34:11.056Z,4.87
2018-08-23T23:36:39.500Z,4.37
2018-08-23T23:39:07.743Z,5.00
2018-08-23T23:41:35.652Z,3.93
2018-08-23T23:44:03.499Z,4.27
2018-08-23T23:46:31.357Z,3.90
2018-08-23T23:48:59.216Z,4.67
2018-08-23T23:51:27.211Z,4.47
2018-08-23T23:53:55.052Z,4.30
2018-08-23T23:56:22.944Z,3.53
2018-08-23T23:58:50.775Z,4.73
